sensor_id;sensor_type;location;lat;lon;timestamp;pressure;altitude;pressure_sealevel;temperature;humidity
75409;BME280;63979;55.644;37.734;2023-11-25T00:04:51;97067.91;;;-4.16;72.23
75409;BME280;63979;55.644;37.734;2023-11-25T00:09:52;97078.34;;;-4.16;72.15
75409;BME280;63979;55.644;37.734;2023-11-25T00:14:54;97069.31;;;-4.26;72.34
75409;BME280;63979;55.644;37.734;2023-11-25T00:19:56;97073.03;;;-4.14;72.50
75409;BME280;63979;55.644;37.734;2023-11-25T00:24:57;97084.63;;;-4.04;71.84
75409;BME280;63979;55.644;37.734;2023-11-25T00:29:57;97083.88;;;-3.90;72.37
75409;BME280;63979;55.644;37.734;2023-11-25T00:34:58;97088.91;;;-3.87;72.06
75409;BME280;63979;55.644;37.734;2023-11-25T00:40:04;97072.34;;;-3.86;71.87
75409;BME280;63979;55.644;37.734;2023-11-25T00:45:07;97085.06;;;-3.80;71.50
75409;BME280;63979;55.644;37.734;2023-11-25T00:50:09;97083.88;;;-3.90;71.84
75409;BME280;63979;55.644;37.734;2023-11-25T00:55:11;97095.50;;;-3.80;71.90
75409;BME280;63979;55.644;37.734;2023-11-25T01:00:12;97092.72;;;-3.77;71.92
75409;BME280;63979;55.644;37.734;2023-11-25T01:05:16;97094.47;;;-3.78;71.58
75409;BME280;63979;55.644;37.734;2023-11-25T01:10:17;97095.63;;;-3.83;71.67
75409;BME280;63979;55.644;37.734;2023-11-25T01:15:18;97100.84;;;-3.83;71.99
75409;BME280;63979;55.644;37.734;2023-11-25T01:20:20;97098.16;;;-3.82;71.51
75409;BME280;63979;55.644;37.734;2023-11-25T01:25:22;97099.78;;;-3.79;71.46
75409;BME280;63979;55.644;37.734;2023-11-25T01:30:23;97105.56;;;-3.74;71.25
75409;BME280;63979;55.644;37.734;2023-11-25T01:35:23;97102.84;;;-3.88;71.18
75409;BME280;63979;55.644;37.734;2023-11-25T01:40:25;97109.34;;;-4.11;71.61
75409;BME280;63979;55.644;37.734;2023-11-25T01:45:26;97100.19;;;-4.02;71.20
75409;BME280;63979;55.644;37.734;2023-11-25T01:50:28;97071.59;;;-4.20;71.62
75409;BME280;63979;55.644;37.734;2023-11-25T01:55:29;97113.88;;;-3.99;71.03
75409;BME280;63979;55.644;37.734;2023-11-25T02:00:33;97131.84;;;-3.94;71.02
75409;BME280;63979;55.644;37.734;2023-11-25T02:05:36;97128.06;;;-4.04;71.47
75409;BME280;63979;55.644;37.734;2023-11-25T02:10:37;97135.56;;;-3.98;71.21
75409;BME280;63979;55.644;37.734;2023-11-25T02:15:39;97143.19;;;-3.95;70.90
75409;BME280;63979;55.644;37.734;2023-11-25T02:20:41;97146.66;;;-3.95;71.23
75409;BME280;63979;55.644;37.734;2023-11-25T02:25:46;97140.69;;;-3.97;71.95
75409;BME280;63979;55.644;37.734;2023-11-25T02:30:50;97150.94;;;-3.94;71.27
75409;BME280;63979;55.644;37.734;2023-11-25T02:35:52;97156.81;;;-4.06;70.86
75409;BME280;63979;55.644;37.734;2023-11-25T02:40:52;97162.84;;;-4.05;70.99
75409;BME280;63979;55.644;37.734;2023-11-25T02:45:54;97157.06;;;-4.11;71.01
75409;BME280;63979;55.644;37.734;2023-11-25T02:50:55;97170.69;;;-4.23;71.63
75409;BME280;63979;55.644;37.734;2023-11-25T02:55:56;97178.97;;;-4.15;71.87
75409;BME280;63979;55.644;37.734;2023-11-25T03:00:56;97179.28;;;-4.21;72.47
75409;BME280;63979;55.644;37.734;2023-11-25T03:06:02;97173.13;;;-4.20;71.77
75409;BME280;63979;55.644;37.734;2023-11-25T03:11:06;97096.84;;;-4.71;71.40
75409;BME280;63979;55.644;37.734;2023-11-25T03:16:13;97194.00;;;-4.37;71.41
75409;BME280;63979;55.644;37.734;2023-11-25T03:21:18;97184.28;;;-4.33;72.15
75409;BME280;63979;55.644;37.734;2023-11-25T03:26:18;97188.50;;;-4.31;71.82
75409;BME280;63979;55.644;37.734;2023-11-25T03:31:19;97192.78;;;-4.30;71.45
75409;BME280;63979;55.644;37.734;2023-11-25T03:36:20;97214.00;;;-4.37;71.68
75409;BME280;63979;55.644;37.734;2023-11-25T03:41:21;97211.16;;;-4.33;71.27
75409;BME280;63979;55.644;37.734;2023-11-25T03:46:23;97224.56;;;-4.41;72.59
75409;BME280;63979;55.644;37.734;2023-11-25T03:51:24;97236.13;;;-4.29;72.99
75409;BME280;63979;55.644;37.734;2023-11-25T03:56:25;97246.19;;;-4.05;72.23
75409;BME280;63979;55.644;37.734;2023-11-25T04:01:26;97246.81;;;-4.00;71.70
75409;BME280;63979;55.644;37.734;2023-11-25T04:06:27;97246.53;;;-4.12;71.50
75409;BME280;63979;55.644;37.734;2023-11-25T04:11:27;97247.28;;;-4.10;71.16
75409;BME280;63979;55.644;37.734;2023-11-25T04:16:28;97228.66;;;-4.19;71.39
75409;BME280;63979;55.644;37.734;2023-11-25T04:21:29;97279.03;;;-3.86;71.60
75409;BME280;63979;55.644;37.734;2023-11-25T04:26:30;97286.06;;;-3.88;71.33
75409;BME280;63979;55.644;37.734;2023-11-25T04:31:31;97269.91;;;-3.94;70.77
75409;BME280;63979;55.644;37.734;2023-11-25T04:36:32;97302.19;;;-3.80;70.95
75409;BME280;63979;55.644;37.734;2023-11-25T04:41:39;97293.56;;;-4.15;70.32
75409;BME280;63979;55.644;37.734;2023-11-25T04:46:43;97305.66;;;-4.14;70.69
75409;BME280;63979;55.644;37.734;2023-11-25T04:51:46;97325.25;;;-4.06;70.47
75409;BME280;63979;55.644;37.734;2023-11-25T04:56:46;97331.25;;;-4.04;70.82
75409;BME280;63979;55.644;37.734;2023-11-25T05:01:47;97340.13;;;-4.09;70.61
75409;BME280;63979;55.644;37.734;2023-11-25T05:06:48;97342.16;;;-4.32;71.37
75409;BME280;63979;55.644;37.734;2023-11-25T05:11:49;97343.78;;;-4.30;71.21
75409;BME280;63979;55.644;37.734;2023-11-25T05:16:50;97366.59;;;-4.35;70.93
75409;BME280;63979;55.644;37.734;2023-11-25T05:21:51;97360.84;;;-4.24;71.49
75409;BME280;63979;55.644;37.734;2023-11-25T05:26:52;97353.56;;;-4.35;71.00
75409;BME280;63979;55.644;37.734;2023-11-25T05:31:54;97385.00;;;-4.03;71.17
75409;BME280;63979;55.644;37.734;2023-11-25T05:36:54;97401.63;;;-4.06;70.81
75409;BME280;63979;55.644;37.734;2023-11-25T05:41:55;97404.63;;;-3.96;70.67
75409;BME280;63979;55.644;37.734;2023-11-25T05:46:56;97415.84;;;-3.77;70.06
75409;BME280;63979;55.644;37.734;2023-11-25T05:51:58;97426.00;;;-3.55;69.73
75409;BME280;63979;55.644;37.734;2023-11-25T05:56:59;97434.22;;;-3.46;68.95
75409;BME280;63979;55.644;37.734;2023-11-25T06:02:00;97438.34;;;-3.41;67.71
75409;BME280;63979;55.644;37.734;2023-11-25T06:07:01;97451.75;;;-3.49;67.48
75409;BME280;63979;55.644;37.734;2023-11-25T06:12:02;97452.41;;;-3.44;67.48
75409;BME280;63979;55.644;37.734;2023-11-25T06:17:04;97472.38;;;-3.27;66.90
75409;BME280;63979;55.644;37.734;2023-11-25T06:22:05;97497.06;;;-3.17;66.59
75409;BME280;63979;55.644;37.734;2023-11-25T06:27:07;97484.78;;;-3.15;66.10
75409;BME280;63979;55.644;37.734;2023-11-25T06:32:08;97502.72;;;-2.92;65.91
75409;BME280;63979;55.644;37.734;2023-11-25T06:37:09;97498.25;;;-2.90;65.56
75409;BME280;63979;55.644;37.734;2023-11-25T06:42:11;97529.91;;;-2.63;64.78
75409;BME280;63979;55.644;37.734;2023-11-25T06:47:13;97541.88;;;-2.59;64.01
75409;BME280;63979;55.644;37.734;2023-11-25T06:52:14;97538.44;;;-2.59;62.59
75409;BME280;63979;55.644;37.734;2023-11-25T06:57:15;97511.22;;;-2.71;62.62
75409;BME280;63979;55.644;37.734;2023-11-25T07:02:17;97573.78;;;-2.36;62.53
75409;BME280;63979;55.644;37.734;2023-11-25T07:07:19;97534.47;;;-2.66;61.67
75409;BME280;63979;55.644;37.734;2023-11-25T07:12:21;97558.22;;;-2.55;62.48
75409;BME280;63979;55.644;37.734;2023-11-25T07:17:22;97599.09;;;-2.21;62.43
75409;BME280;63979;55.644;37.734;2023-11-25T07:22:23;97601.44;;;-2.16;60.75
75409;BME280;63979;55.644;37.734;2023-11-25T07:27:23;97618.47;;;-2.09;61.13
75409;BME280;63979;55.644;37.734;2023-11-25T07:32:24;97643.38;;;-2.02;61.16
75409;BME280;63979;55.644;37.734;2023-11-25T07:37:25;97622.28;;;-2.15;60.80
75409;BME280;63979;55.644;37.734;2023-11-25T07:42:26;97663.72;;;-1.76;61.34
75409;BME280;63979;55.644;37.734;2023-11-25T07:47:27;97666.28;;;-1.59;58.96
75409;BME280;63979;55.644;37.734;2023-11-25T07:52:28;97683.69;;;-1.26;59.63
75409;BME280;63979;55.644;37.734;2023-11-25T07:57:29;97680.47;;;-1.15;59.16
75409;BME280;63979;55.644;37.734;2023-11-25T08:02:30;97699.91;;;-1.04;57.98
75409;BME280;63979;55.644;37.734;2023-11-25T08:07:31;97662.03;;;-0.98;58.82
75409;BME280;63979;55.644;37.734;2023-11-25T08:12:31;97727.97;;;-0.46;56.84
75409;BME280;63979;55.644;37.734;2023-11-25T08:17:32;97737.63;;;-0.46;55.54
75409;BME280;63979;55.644;37.734;2023-11-25T08:22:33;97759.78;;;-0.52;56.24
75409;BME280;63979;55.644;37.734;2023-11-25T08:27:34;97748.50;;;-0.68;56.17
75409;BME280;63979;55.644;37.734;2023-11-25T08:32:40;97771.91;;;-1.12;57.36
75409;BME280;63979;55.644;37.734;2023-11-25T08:37:41;97781.78;;;-1.33;59.28
75409;BME280;63979;55.644;37.734;2023-11-25T08:42:45;97802.56;;;-1.47;59.41
75409;BME280;63979;55.644;37.734;2023-11-25T08:47:46;97831.16;;;-1.60;58.88
75409;BME280;63979;55.644;37.734;2023-11-25T08:52:47;97789.13;;;-2.25;59.94
75409;BME280;63979;55.644;37.734;2023-11-25T08:57:50;97836.69;;;-1.83;60.56
75409;BME280;63979;55.644;37.734;2023-11-25T09:02:51;97846.63;;;-1.73;59.01
75409;BME280;63979;55.644;37.734;2023-11-25T09:07:55;97843.22;;;-1.58;60.42
75409;BME280;63979;55.644;37.734;2023-11-25T09:12:56;97826.59;;;-1.74;60.02
75409;BME280;63979;55.644;37.734;2023-11-25T09:17:57;97861.38;;;-1.54;60.71
75409;BME280;63979;55.644;37.734;2023-11-25T09:22:58;97867.84;;;-1.62;59.88
75409;BME280;63979;55.644;37.734;2023-11-25T09:27:58;97890.16;;;-1.54;60.46
75409;BME280;63979;55.644;37.734;2023-11-25T09:32:59;97911.22;;;-1.92;60.81
75409;BME280;63979;55.644;37.734;2023-11-25T09:38:01;97939.22;;;-1.60;60.32
75409;BME280;63979;55.644;37.734;2023-11-25T09:43:02;97943.06;;;-1.49;59.61
75409;BME280;63979;55.644;37.734;2023-11-25T09:48:03;97942.75;;;-1.26;58.71
75409;BME280;63979;55.644;37.734;2023-11-25T09:53:10;97928.91;;;-1.45;58.80
75409;BME280;63979;55.644;37.734;2023-11-25T09:58:13;97899.84;;;-1.91;60.09
75409;BME280;63979;55.644;37.734;2023-11-25T10:03:18;97937.06;;;-1.34;58.63
75409;BME280;63979;55.644;37.734;2023-11-25T10:08:22;97997.72;;;-0.43;57.37
75409;BME280;63979;55.644;37.734;2023-11-25T10:13:22;97978.09;;;-0.51;57.52
75409;BME280;63979;55.644;37.734;2023-11-25T10:18:24;98011.91;;;0.02;56.07
75409;BME280;63979;55.644;37.734;2023-11-25T10:23:25;98031.94;;;0.03;55.42
75409;BME280;63979;55.644;37.734;2023-11-25T10:28:27;98004.09;;;-0.31;55.62
75409;BME280;63979;55.644;37.734;2023-11-25T10:33:34;98023.19;;;-0.13;56.19
75409;BME280;63979;55.644;37.734;2023-11-25T10:38:41;98045.88;;;-0.28;56.26
75409;BME280;63979;55.644;37.734;2023-11-25T10:43:42;98049.72;;;-0.35;56.63
75409;BME280;63979;55.644;37.734;2023-11-25T10:48:48;98047.56;;;-0.27;56.86
75409;BME280;63979;55.644;37.734;2023-11-25T10:53:50;98067.28;;;-0.70;56.84
75409;BME280;63979;55.644;37.734;2023-11-25T10:58:53;98026.19;;;-1.03;57.42
75409;BME280;63979;55.644;37.734;2023-11-25T11:04:02;98048.50;;;-0.78;57.57
75409;BME280;63979;55.644;37.734;2023-11-25T11:09:07;98101.50;;;-0.56;57.37
75409;BME280;63979;55.644;37.734;2023-11-25T11:14:20;98085.16;;;-0.61;57.35
75409;BME280;63979;55.644;37.734;2023-11-25T11:19:28;98126.56;;;-0.68;57.40
75409;BME280;63979;55.644;37.734;2023-11-25T11:24:44;98150.94;;;-0.84;58.89
75409;BME280;63979;55.644;37.734;2023-11-25T11:29:57;98156.59;;;-1.28;59.79
75409;BME280;63979;55.644;37.734;2023-11-25T11:35:06;98171.03;;;-1.38;60.14
75409;BME280;63979;55.644;37.734;2023-11-25T11:40:08;98189.81;;;-1.49;60.42
75409;BME280;63979;55.644;37.734;2023-11-25T11:45:11;98193.75;;;-1.39;61.06
75409;BME280;63979;55.644;37.734;2023-11-25T11:50:22;98202.63;;;-1.62;61.69
75409;BME280;63979;55.644;37.734;2023-11-25T11:55:33;98209.38;;;-1.76;61.14
75409;BME280;63979;55.644;37.734;2023-11-25T12:00:47;98213.78;;;-1.77;61.59
75409;BME280;63979;55.644;37.734;2023-11-25T12:05:48;98228.56;;;-1.57;62.16
75409;BME280;63979;55.644;37.734;2023-11-25T12:10:50;98226.19;;;-1.62;61.61
75409;BME280;63979;55.644;37.734;2023-11-25T12:15:52;98238.69;;;-1.49;61.80
75409;BME280;63979;55.644;37.734;2023-11-25T12:20:56;98245.53;;;-1.47;61.15
75409;BME280;63979;55.644;37.734;2023-11-25T12:25:58;98260.09;;;-1.41;61.65
75409;BME280;63979;55.644;37.734;2023-11-25T12:30:59;98246.69;;;-1.52;61.62
75409;BME280;63979;55.644;37.734;2023-11-25T12:36:00;98257.63;;;-1.63;61.20
75409;BME280;63979;55.644;37.734;2023-11-25T12:41:00;98293.06;;;-1.56;61.28
75409;BME280;63979;55.644;37.734;2023-11-25T12:46:09;98296.81;;;-2.23;62.20
75409;BME280;63979;55.644;37.734;2023-11-25T12:51:10;98329.47;;;-2.33;63.53
75409;BME280;63979;55.644;37.734;2023-11-25T12:56:13;98348.00;;;-2.61;64.51
75409;BME280;63979;55.644;37.734;2023-11-25T13:01:15;98338.31;;;-2.80;64.67
75409;BME280;63979;55.644;37.734;2023-11-25T13:06:15;98340.78;;;-2.99;65.42
75409;BME280;63979;55.644;37.734;2023-11-25T13:11:16;98358.81;;;-2.93;65.54
75409;BME280;63979;55.644;37.734;2023-11-25T13:16:19;98358.53;;;-2.86;65.86
75409;BME280;63979;55.644;37.734;2023-11-25T13:21:22;98371.69;;;-2.65;65.46
75409;BME280;63979;55.644;37.734;2023-11-25T13:26:23;98384.72;;;-2.43;65.15
75409;BME280;63979;55.644;37.734;2023-11-25T13:31:25;98375.19;;;-2.44;64.63
75409;BME280;63979;55.644;37.734;2023-11-25T13:36:26;98382.44;;;-2.51;64.40
75409;BME280;63979;55.644;37.734;2023-11-25T13:41:27;98385.28;;;-2.57;64.40
75409;BME280;63979;55.644;37.734;2023-11-25T13:46:28;98382.81;;;-2.38;64.28
75409;BME280;63979;55.644;37.734;2023-11-25T13:51:29;98391.06;;;-2.49;64.47
75409;BME280;63979;55.644;37.734;2023-11-25T13:56:30;98414.25;;;-2.87;65.11
75409;BME280;63979;55.644;37.734;2023-11-25T14:01:31;98429.47;;;-2.98;66.00
75409;BME280;63979;55.644;37.734;2023-11-25T14:06:32;98417.38;;;-3.00;66.47
75409;BME280;63979;55.644;37.734;2023-11-25T14:11:34;98439.84;;;-2.96;66.14
75409;BME280;63979;55.644;37.734;2023-11-25T14:16:35;98440.25;;;-3.07;66.13
75409;BME280;63979;55.644;37.734;2023-11-25T14:21:36;98437.88;;;-2.90;65.86
75409;BME280;63979;55.644;37.734;2023-11-25T14:26:36;98444.72;;;-2.87;65.84
75409;BME280;63979;55.644;37.734;2023-11-25T14:31:37;98471.69;;;-2.87;66.21
75409;BME280;63979;55.644;37.734;2023-11-25T14:36:38;98480.31;;;-2.85;66.59
75409;BME280;63979;55.644;37.734;2023-11-25T14:41:39;98484.22;;;-2.96;67.58
75409;BME280;63979;55.644;37.734;2023-11-25T14:46:40;98490.06;;;-2.90;66.17
75409;BME280;63979;55.644;37.734;2023-11-25T14:51:41;98497.06;;;-2.90;66.26
75409;BME280;63979;55.644;37.734;2023-11-25T14:56:41;98501.31;;;-2.88;66.14
75409;BME280;63979;55.644;37.734;2023-11-25T15:01:47;98501.31;;;-2.88;66.07
75409;BME280;63979;55.644;37.734;2023-11-25T15:06:48;98527.78;;;-2.73;65.89
75409;BME280;63979;55.644;37.734;2023-11-25T15:11:50;98539.94;;;-2.72;66.32
75409;BME280;63979;55.644;37.734;2023-11-25T15:16:52;98550.34;;;-2.96;66.94
75409;BME280;63979;55.644;37.734;2023-11-25T15:21:53;98568.97;;;-2.82;66.10
75409;BME280;63979;55.644;37.734;2023-11-25T15:26:54;98586.19;;;-3.01;67.16
75409;BME280;63979;55.644;37.734;2023-11-25T15:31:55;98581.66;;;-2.96;66.92
75409;BME280;63979;55.644;37.734;2023-11-25T15:36:56;98547.75;;;-3.22;66.77
75409;BME280;63979;55.644;37.734;2023-11-25T15:41:57;98587.41;;;-3.11;67.27
75409;BME280;63979;55.644;37.734;2023-11-25T15:46:59;98616.00;;;-3.34;67.37
75409;BME280;63979;55.644;37.734;2023-11-25T15:52:00;98614.53;;;-3.43;68.54
75409;BME280;63979;55.644;37.734;2023-11-25T15:57:01;98629.84;;;-3.32;68.06
75409;BME280;63979;55.644;37.734;2023-11-25T16:02:02;98643.00;;;-3.09;68.15
75409;BME280;63979;55.644;37.734;2023-11-25T16:07:03;98645.75;;;-3.14;67.36
75409;BME280;63979;55.644;37.734;2023-11-25T16:12:07;98653.84;;;-2.95;66.69
75409;BME280;63979;55.644;37.734;2023-11-25T16:17:11;98666.44;;;-3.07;67.28
75409;BME280;63979;55.644;37.734;2023-11-25T16:22:13;98675.63;;;-2.96;66.47
75409;BME280;63979;55.644;37.734;2023-11-25T16:27:14;98650.94;;;-3.12;65.93
75409;BME280;63979;55.644;37.734;2023-11-25T16:32:15;98667.03;;;-2.99;66.78
75409;BME280;63979;55.644;37.734;2023-11-25T16:37:19;98679.88;;;-2.93;66.68
75409;BME280;63979;55.644;37.734;2023-11-25T16:42:22;98689.88;;;-3.06;67.42
75409;BME280;63979;55.644;37.734;2023-11-25T16:47:23;98642.97;;;-3.35;67.32
75409;BME280;63979;55.644;37.734;2023-11-25T16:52:24;98702.25;;;-3.13;68.03
75409;BME280;63979;55.644;37.734;2023-11-25T16:57:25;98731.91;;;-3.15;67.59
75409;BME280;63979;55.644;37.734;2023-11-25T17:02:26;98693.19;;;-3.29;67.45
75409;BME280;63979;55.644;37.734;2023-11-25T17:07:28;98730.25;;;-3.18;68.28
75409;BME280;63979;55.644;37.734;2023-11-25T17:12:31;98739.88;;;-3.20;68.78
75409;BME280;63979;55.644;37.734;2023-11-25T17:17:32;98744.59;;;-3.03;68.32
75409;BME280;63979;55.644;37.734;2023-11-25T17:22:33;98744.28;;;-2.94;68.00
75409;BME280;63979;55.644;37.734;2023-11-25T17:27:35;98688.53;;;-3.19;66.95
75409;BME280;63979;55.644;37.734;2023-11-25T17:32:36;98732.00;;;-3.18;66.54
75409;BME280;63979;55.644;37.734;2023-11-25T17:37:37;98763.63;;;-2.99;67.22
75409;BME280;63979;55.644;37.734;2023-11-25T17:42:38;98759.06;;;-2.93;67.64
75409;BME280;63979;55.644;37.734;2023-11-25T17:47:40;98785.63;;;-3.08;67.52
75409;BME280;63979;55.644;37.734;2023-11-25T17:52:40;98790.84;;;-3.08;68.69
75409;BME280;63979;55.644;37.734;2023-11-25T17:57:41;98801.00;;;-2.99;67.96
75409;BME280;63979;55.644;37.734;2023-11-25T18:02:42;98745.94;;;-3.19;67.99
75409;BME280;63979;55.644;37.734;2023-11-25T18:07:43;98733.56;;;-3.40;68.18
75409;BME280;63979;55.644;37.734;2023-11-25T18:12:44;98789.41;;;-3.18;68.74
75409;BME280;63979;55.644;37.734;2023-11-25T18:17:45;98802.09;;;-3.06;68.22
75409;BME280;63979;55.644;37.734;2023-11-25T18:22:46;98825.78;;;-3.14;67.83
75409;BME280;63979;55.644;37.734;2023-11-25T18:27:47;98832.22;;;-3.25;68.35
75409;BME280;63979;55.644;37.734;2023-11-25T18:32:48;98836.13;;;-3.09;68.01
75409;BME280;63979;55.644;37.734;2023-11-25T18:37:49;98836.28;;;-3.15;67.90
75409;BME280;63979;55.644;37.734;2023-11-25T18:42:50;98847.78;;;-3.22;68.28
75409;BME280;63979;55.644;37.734;2023-11-25T18:47:50;98847.94;;;-3.27;68.76
75409;BME280;63979;55.644;37.734;2023-11-25T18:52:51;98855.72;;;-3.25;68.53
75409;BME280;63979;55.644;37.734;2023-11-25T18:57:52;98841.50;;;-3.15;68.70
75409;BME280;63979;55.644;37.734;2023-11-25T19:02:53;98839.44;;;-3.04;68.50
75409;BME280;63979;55.644;37.734;2023-11-25T19:07:53;98852.88;;;-2.88;68.16
75409;BME280;63979;55.644;37.734;2023-11-25T19:12:54;98850.78;;;-2.75;67.16
75409;BME280;63979;55.644;37.734;2023-11-25T19:17:55;98848.22;;;-2.77;67.32
75409;BME280;63979;55.644;37.734;2023-11-25T19:22:56;98817.03;;;-2.83;67.22
75409;BME280;63979;55.644;37.734;2023-11-25T19:27:57;98841.59;;;-2.61;67.51
75409;BME280;63979;55.644;37.734;2023-11-25T19:32:58;98846.72;;;-2.58;67.53
75409;BME280;63979;55.644;37.734;2023-11-25T19:37:59;98838.88;;;-2.58;67.53
75409;BME280;63979;55.644;37.734;2023-11-25T19:43:00;98857.31;;;-2.62;66.89
75409;BME280;63979;55.644;37.734;2023-11-25T19:48:01;98871.31;;;-2.65;68.29
75409;BME280;63979;55.644;37.734;2023-11-25T19:53:02;98876.16;;;-2.53;67.89
75409;BME280;63979;55.644;37.734;2023-11-25T19:58:03;98885.34;;;-2.39;67.07
75409;BME280;63979;55.644;37.734;2023-11-25T20:03:04;98887.47;;;-2.24;67.01
75409;BME280;63979;55.644;37.734;2023-11-25T20:08:05;98867.91;;;-2.12;66.77
75409;BME280;63979;55.644;37.734;2023-11-25T20:13:06;98887.97;;;-2.13;66.59
75409;BME280;63979;55.644;37.734;2023-11-25T20:18:07;98895.94;;;-2.17;66.57
75409;BME280;63979;55.644;37.734;2023-11-25T20:23:09;98919.91;;;-2.03;66.53
75409;BME280;63979;55.644;37.734;2023-11-25T20:28:10;98916.53;;;-2.07;67.32
75409;BME280;63979;55.644;37.734;2023-11-25T20:33:11;98903.38;;;-2.04;66.95
75409;BME280;63979;55.644;37.734;2023-11-25T20:38:11;98879.97;;;-2.08;67.65
75409;BME280;63979;55.644;37.734;2023-11-25T20:43:12;98890.56;;;-2.13;67.71
75409;BME280;63979;55.644;37.734;2023-11-25T20:48:13;98885.28;;;-2.11;67.51
75409;BME280;63979;55.644;37.734;2023-11-25T20:53:14;98895.09;;;-2.18;67.99
75409;BME280;63979;55.644;37.734;2023-11-25T20:58:15;98901.38;;;-2.24;68.62
75409;BME280;63979;55.644;37.734;2023-11-25T21:03:16;98903.94;;;-2.22;68.63
75409;BME280;63979;55.644;37.734;2023-11-25T21:08:17;98892.63;;;-2.23;68.59
75409;BME280;63979;55.644;37.734;2023-11-25T21:13:18;98896.44;;;-2.33;68.45
75409;BME280;63979;55.644;37.734;2023-11-25T21:18:18;98886.09;;;-2.36;69.10
75409;BME280;63979;55.644;37.734;2023-11-25T21:23:20;98889.53;;;-2.34;68.23
75409;BME280;63979;55.644;37.734;2023-11-25T21:28:20;98897.34;;;-2.34;69.00
75409;BME280;63979;55.644;37.734;2023-11-25T21:33:21;98878.78;;;-2.53;69.34
75409;BME280;63979;55.644;37.734;2023-11-25T21:38:22;98914.41;;;-2.22;68.93
75409;BME280;63979;55.644;37.734;2023-11-25T21:43:27;98919.53;;;-2.19;69.68
75409;BME280;63979;55.644;37.734;2023-11-25T21:48:28;98908.31;;;-2.23;69.61
75409;BME280;63979;55.644;37.734;2023-11-25T21:53:31;98906.41;;;-2.17;69.22
75409;BME280;63979;55.644;37.734;2023-11-25T21:58:32;98919.53;;;-2.19;69.59
75409;BME280;63979;55.644;37.734;2023-11-25T22:03:34;98916.06;;;-2.20;69.83
75409;BME280;63979;55.644;37.734;2023-11-25T22:08:38;98908.22;;;-2.20;69.64
75409;BME280;63979;55.644;37.734;2023-11-25T22:13:38;98935.06;;;-2.14;70.07
75409;BME280;63979;55.644;37.734;2023-11-25T22:18:39;98936.06;;;-2.18;69.75
75409;BME280;63979;55.644;37.734;2023-11-25T22:23:40;98938.78;;;-2.22;70.22
75409;BME280;63979;55.644;37.734;2023-11-25T22:28:47;98946.63;;;-2.22;69.88
75409;BME280;63979;55.644;37.734;2023-11-25T22:33:48;98926.84;;;-2.30;69.66
75409;BME280;63979;55.644;37.734;2023-11-25T22:38:52;98925.81;;;-2.25;70.04
75409;BME280;63979;55.644;37.734;2023-11-25T22:43:53;98950.78;;;-2.16;69.73
75409;BME280;63979;55.644;37.734;2023-11-25T22:48:54;98951.44;;;-2.08;69.85
75409;BME280;63979;55.644;37.734;2023-11-25T22:53:55;98958.31;;;-2.05;69.93
75409;BME280;63979;55.644;37.734;2023-11-25T22:58:56;98959.06;;;-2.02;69.86
75409;BME280;63979;55.644;37.734;2023-11-25T23:03:57;98972.34;;;-2.09;69.83
75409;BME280;63979;55.644;37.734;2023-11-25T23:08:58;98980.69;;;-2.25;70.12
75409;BME280;63979;55.644;37.734;2023-11-25T23:13:59;98977.69;;;-2.12;70.58
75409;BME280;63979;55.644;37.734;2023-11-25T23:19:00;98943.78;;;-2.42;70.19
75409;BME280;63979;55.644;37.734;2023-11-25T23:24:01;98989.94;;;-2.14;70.28
75409;BME280;63979;55.644;37.734;2023-11-25T23:29:02;99007.34;;;-2.13;70.94
75409;BME280;63979;55.644;37.734;2023-11-25T23:34:04;99008.19;;;-2.41;71.44
75409;BME280;63979;55.644;37.734;2023-11-25T23:39:05;98997.81;;;-2.44;72.27
75409;BME280;63979;55.644;37.734;2023-11-25T23:44:07;98956.56;;;-2.62;71.59
75409;BME280;63979;55.644;37.734;2023-11-25T23:49:08;98994.19;;;-2.38;71.43
75409;BME280;63979;55.644;37.734;2023-11-25T23:54:09;98991.72;;;-2.44;71.86
75409;BME280;63979;55.644;37.734;2023-11-25T23:59:11;98985.75;;;-2.48;71.63
